sensor_id;sensor_type;location;lat;lon;timestamp;P1;durP1;ratioP1;P2;durP2;ratioP2
12369;SDS011;6249;52.128;9.986;2022-12-20T00:01:29;29.80;;;13.80;;
12369;SDS011;6249;52.128;9.986;2022-12-20T00:04:51;26.80;;;14.13;;
12369;SDS011;6249;52.128;9.986;2022-12-20T00:08:15;29.43;;;15.43;;
12369;SDS011;6249;52.128;9.986;2022-12-20T00:11:37;31.50;;;13.53;;
12369;SDS011;6249;52.128;9.986;2022-12-20T00:15:00;27.80;;;14.63;;
12369;SDS011;6249;52.128;9.986;2022-12-20T00:18:22;28.03;;;13.67;;
12369;SDS011;6249;52.128;9.986;2022-12-20T00:21:45;26.40;;;14.70;;
12369;SDS011;6249;52.128;9.986;2022-12-20T00:25:08;30.50;;;14.70;;
12369;SDS011;6249;52.128;9.986;2022-12-20T00:28:29;27.80;;;15.43;;
12369;SDS011;6249;52.128;9.986;2022-12-20T00:31:51;27.40;;;14.80;;
12369;SDS011;6249;52.128;9.986;2022-12-20T00:35:16;28.23;;;14.47;;
12369;SDS011;6249;52.128;9.986;2022-12-20T00:38:39;28.33;;;14.37;;
12369;SDS011;6249;52.128;9.986;2022-12-20T00:42:02;29.10;;;14.73;;
12369;SDS011;6249;52.128;9.986;2022-12-20T00:45:23;29.03;;;13.07;;
12369;SDS011;6249;52.128;9.986;2022-12-20T00:48:46;24.80;;;12.53;;
12369;SDS011;6249;52.128;9.986;2022-12-20T00:52:07;30.03;;;15.23;;
12369;SDS011;6249;52.128;9.986;2022-12-20T00:55:27;28.93;;;13.90;;
12369;SDS011;6249;52.128;9.986;2022-12-20T00:58:50;25.07;;;13.87;;
12369;SDS011;6249;52.128;9.986;2022-12-20T01:02:12;26.73;;;13.57;;
12369;SDS011;6249;52.128;9.986;2022-12-20T01:05:37;30.57;;;13.80;;
12369;SDS011;6249;52.128;9.986;2022-12-20T01:08:58;26.17;;;13.70;;
12369;SDS011;6249;52.128;9.986;2022-12-20T01:12:19;26.30;;;13.83;;
12369;SDS011;6249;52.128;9.986;2022-12-20T01:15:44;27.30;;;14.40;;
12369;SDS011;6249;52.128;9.986;2022-12-20T01:19:07;28.40;;;13.93;;
12369;SDS011;6249;52.128;9.986;2022-12-20T01:22:35;29.50;;;13.93;;
12369;SDS011;6249;52.128;9.986;2022-12-20T01:25:58;26.63;;;13.67;;
12369;SDS011;6249;52.128;9.986;2022-12-20T01:29:23;25.60;;;13.63;;
12369;SDS011;6249;52.128;9.986;2022-12-20T01:32:46;24.90;;;14.13;;
12369;SDS011;6249;52.128;9.986;2022-12-20T01:36:09;34.60;;;13.90;;
12369;SDS011;6249;52.128;9.986;2022-12-20T01:39:31;25.40;;;13.77;;
12369;SDS011;6249;52.128;9.986;2022-12-20T01:42:54;23.17;;;12.70;;
12369;SDS011;6249;52.128;9.986;2022-12-20T01:46:17;24.70;;;13.33;;
12369;SDS011;6249;52.128;9.986;2022-12-20T01:49:41;26.77;;;12.60;;
12369;SDS011;6249;52.128;9.986;2022-12-20T01:53:06;24.83;;;13.07;;
12369;SDS011;6249;52.128;9.986;2022-12-20T01:56:32;26.90;;;13.27;;
12369;SDS011;6249;52.128;9.986;2022-12-20T01:59:56;23.37;;;12.43;;
12369;SDS011;6249;52.128;9.986;2022-12-20T02:03:17;21.97;;;11.50;;
12369;SDS011;6249;52.128;9.986;2022-12-20T02:06:40;27.47;;;13.20;;
12369;SDS011;6249;52.128;9.986;2022-12-20T02:10:01;20.57;;;11.97;;
12369;SDS011;6249;52.128;9.986;2022-12-20T02:13:26;23.13;;;12.70;;
12369;SDS011;6249;52.128;9.986;2022-12-20T02:24:56;20.33;;;11.20;;
12369;SDS011;6249;52.128;9.986;2022-12-20T02:32:19;23.57;;;12.57;;
12369;SDS011;6249;52.128;9.986;2022-12-20T02:35:41;23.10;;;10.90;;
12369;SDS011;6249;52.128;9.986;2022-12-20T02:39:04;22.23;;;12.80;;
12369;SDS011;6249;52.128;9.986;2022-12-20T02:42:27;21.73;;;12.03;;
12369;SDS011;6249;52.128;9.986;2022-12-20T02:45:53;24.10;;;13.47;;
12369;SDS011;6249;52.128;9.986;2022-12-20T02:49:19;25.73;;;14.03;;
12369;SDS011;6249;52.128;9.986;2022-12-20T02:52:46;20.73;;;12.47;;
12369;SDS011;6249;52.128;9.986;2022-12-20T02:59:46;22.33;;;12.70;;
12369;SDS011;6249;52.128;9.986;2022-12-20T03:03:18;25.10;;;13.40;;
12369;SDS011;6249;52.128;9.986;2022-12-20T03:07:02;23.50;;;12.97;;
12369;SDS011;6249;52.128;9.986;2022-12-20T03:10:22;30.50;;;15.37;;
12369;SDS011;6249;52.128;9.986;2022-12-20T03:13:43;25.10;;;13.77;;
12369;SDS011;6249;52.128;9.986;2022-12-20T03:17:06;27.43;;;14.13;;
12369;SDS011;6249;52.128;9.986;2022-12-20T03:20:30;27.27;;;14.13;;
12369;SDS011;6249;52.128;9.986;2022-12-20T03:23:50;28.70;;;13.77;;
12369;SDS011;6249;52.128;9.986;2022-12-20T03:27:11;20.80;;;12.23;;
12369;SDS011;6249;52.128;9.986;2022-12-20T03:30:32;23.97;;;13.20;;
12369;SDS011;6249;52.128;9.986;2022-12-20T03:33:55;26.63;;;13.30;;
12369;SDS011;6249;52.128;9.986;2022-12-20T03:37:15;29.03;;;15.17;;
12369;SDS011;6249;52.128;9.986;2022-12-20T03:40:38;25.47;;;13.27;;
12369;SDS011;6249;52.128;9.986;2022-12-20T03:44:03;27.53;;;13.93;;
12369;SDS011;6249;52.128;9.986;2022-12-20T03:47:26;26.17;;;14.17;;
12369;SDS011;6249;52.128;9.986;2022-12-20T03:50:49;25.03;;;13.03;;
12369;SDS011;6249;52.128;9.986;2022-12-20T03:54:10;22.10;;;12.50;;
12369;SDS011;6249;52.128;9.986;2022-12-20T03:57:33;23.60;;;12.97;;
12369;SDS011;6249;52.128;9.986;2022-12-20T04:00:55;24.43;;;12.87;;
12369;SDS011;6249;52.128;9.986;2022-12-20T04:04:18;23.30;;;13.30;;
12369;SDS011;6249;52.128;9.986;2022-12-20T04:07:41;26.93;;;13.37;;
12369;SDS011;6249;52.128;9.986;2022-12-20T04:11:02;28.70;;;13.63;;
12369;SDS011;6249;52.128;9.986;2022-12-20T04:14:40;21.60;;;12.80;;
12369;SDS011;6249;52.128;9.986;2022-12-20T04:18:01;23.67;;;13.20;;
12369;SDS011;6249;52.128;9.986;2022-12-20T04:21:28;23.93;;;12.90;;
12369;SDS011;6249;52.128;9.986;2022-12-20T04:24:50;21.93;;;11.80;;
12369;SDS011;6249;52.128;9.986;2022-12-20T04:28:11;23.37;;;12.00;;
12369;SDS011;6249;52.128;9.986;2022-12-20T04:31:31;22.27;;;11.30;;
12369;SDS011;6249;52.128;9.986;2022-12-20T04:34:52;21.80;;;11.43;;
12369;SDS011;6249;52.128;9.986;2022-12-20T04:38:13;22.93;;;11.57;;
12369;SDS011;6249;52.128;9.986;2022-12-20T04:41:36;21.10;;;11.00;;
12369;SDS011;6249;52.128;9.986;2022-12-20T04:44:57;24.43;;;11.43;;
12369;SDS011;6249;52.128;9.986;2022-12-20T04:48:18;22.70;;;10.40;;
12369;SDS011;6249;52.128;9.986;2022-12-20T04:51:39;22.27;;;11.30;;
12369;SDS011;6249;52.128;9.986;2022-12-20T04:54:59;22.23;;;10.33;;
12369;SDS011;6249;52.128;9.986;2022-12-20T04:58:20;18.13;;;10.87;;
12369;SDS011;6249;52.128;9.986;2022-12-20T05:01:43;20.50;;;11.03;;
12369;SDS011;6249;52.128;9.986;2022-12-20T05:05:04;22.10;;;11.00;;
12369;SDS011;6249;52.128;9.986;2022-12-20T05:08:24;24.97;;;11.07;;
12369;SDS011;6249;52.128;9.986;2022-12-20T05:11:49;19.03;;;10.23;;
12369;SDS011;6249;52.128;9.986;2022-12-20T05:15:10;19.83;;;11.60;;
12369;SDS011;6249;52.128;9.986;2022-12-20T05:18:36;26.10;;;13.60;;
12369;SDS011;6249;52.128;9.986;2022-12-20T05:21:56;21.00;;;11.77;;
12369;SDS011;6249;52.128;9.986;2022-12-20T05:25:39;21.90;;;12.80;;
12369;SDS011;6249;52.128;9.986;2022-12-20T05:29:09;27.73;;;11.90;;
12369;SDS011;6249;52.128;9.986;2022-12-20T05:32:32;21.20;;;11.57;;
12369;SDS011;6249;52.128;9.986;2022-12-20T05:35:53;24.90;;;12.93;;
12369;SDS011;6249;52.128;9.986;2022-12-20T05:39:14;22.00;;;11.50;;
12369;SDS011;6249;52.128;9.986;2022-12-20T05:42:39;22.20;;;12.17;;
12369;SDS011;6249;52.128;9.986;2022-12-20T05:46:00;17.87;;;10.17;;
12369;SDS011;6249;52.128;9.986;2022-12-20T05:49:21;21.73;;;11.30;;
12369;SDS011;6249;52.128;9.986;2022-12-20T05:52:41;28.40;;;12.30;;
12369;SDS011;6249;52.128;9.986;2022-12-20T05:56:02;21.60;;;10.80;;
12369;SDS011;6249;52.128;9.986;2022-12-20T05:59:25;19.67;;;10.30;;
12369;SDS011;6249;52.128;9.986;2022-12-20T06:02:48;19.07;;;11.70;;
12369;SDS011;6249;52.128;9.986;2022-12-20T06:06:09;18.03;;;10.10;;
12369;SDS011;6249;52.128;9.986;2022-12-20T06:09:29;24.60;;;12.40;;
12369;SDS011;6249;52.128;9.986;2022-12-20T06:12:51;22.10;;;11.30;;
12369;SDS011;6249;52.128;9.986;2022-12-20T06:16:11;21.63;;;11.77;;
12369;SDS011;6249;52.128;9.986;2022-12-20T06:19:32;20.80;;;12.37;;
12369;SDS011;6249;52.128;9.986;2022-12-20T06:22:52;24.63;;;12.67;;
12369;SDS011;6249;52.128;9.986;2022-12-20T06:26:15;22.23;;;11.67;;
12369;SDS011;6249;52.128;9.986;2022-12-20T06:29:37;20.57;;;10.83;;
12369;SDS011;6249;52.128;9.986;2022-12-20T06:32:58;17.20;;;10.67;;
12369;SDS011;6249;52.128;9.986;2022-12-20T06:36:21;24.33;;;12.97;;
12369;SDS011;6249;52.128;9.986;2022-12-20T06:39:41;21.73;;;12.00;;
12369;SDS011;6249;52.128;9.986;2022-12-20T06:43:04;18.87;;;9.97;;
12369;SDS011;6249;52.128;9.986;2022-12-20T06:46:28;25.50;;;11.90;;
12369;SDS011;6249;52.128;9.986;2022-12-20T06:49:48;23.30;;;12.70;;
12369;SDS011;6249;52.128;9.986;2022-12-20T06:53:11;22.13;;;13.00;;
12369;SDS011;6249;52.128;9.986;2022-12-20T06:56:31;21.73;;;10.93;;
12369;SDS011;6249;52.128;9.986;2022-12-20T06:59:52;22.03;;;12.30;;
12369;SDS011;6249;52.128;9.986;2022-12-20T07:03:15;20.30;;;10.90;;
12369;SDS011;6249;52.128;9.986;2022-12-20T07:06:35;30.20;;;10.80;;
12369;SDS011;6249;52.128;9.986;2022-12-20T07:09:58;20.20;;;10.60;;
12369;SDS011;6249;52.128;9.986;2022-12-20T07:13:19;21.77;;;10.20;;
12369;SDS011;6249;52.128;9.986;2022-12-20T07:16:39;22.77;;;11.50;;
12369;SDS011;6249;52.128;9.986;2022-12-20T07:20:02;25.20;;;11.40;;
12369;SDS011;6249;52.128;9.986;2022-12-20T07:23:23;20.20;;;11.50;;
12369;SDS011;6249;52.128;9.986;2022-12-20T07:26:48;16.90;;;9.77;;
12369;SDS011;6249;52.128;9.986;2022-12-20T07:30:11;19.73;;;11.07;;
12369;SDS011;6249;52.128;9.986;2022-12-20T07:33:32;25.93;;;10.70;;
12369;SDS011;6249;52.128;9.986;2022-12-20T07:36:53;20.93;;;10.97;;
12369;SDS011;6249;52.128;9.986;2022-12-20T07:40:16;21.20;;;11.83;;
12369;SDS011;6249;52.128;9.986;2022-12-20T07:43:36;20.30;;;11.87;;
12369;SDS011;6249;52.128;9.986;2022-12-20T07:46:57;23.10;;;12.63;;
12369;SDS011;6249;52.128;9.986;2022-12-20T07:50:18;19.50;;;9.63;;
12369;SDS011;6249;52.128;9.986;2022-12-20T07:53:39;17.47;;;8.63;;
12369;SDS011;6249;52.128;9.986;2022-12-20T07:57:12;21.77;;;11.33;;
12369;SDS011;6249;52.128;9.986;2022-12-20T08:00:36;20.03;;;10.80;;
12369;SDS011;6249;52.128;9.986;2022-12-20T08:03:59;20.43;;;11.07;;
12369;SDS011;6249;52.128;9.986;2022-12-20T08:07:24;16.90;;;10.00;;
12369;SDS011;6249;52.128;9.986;2022-12-20T08:10:48;17.57;;;9.93;;
12369;SDS011;6249;52.128;9.986;2022-12-20T08:14:09;18.43;;;9.40;;
12369;SDS011;6249;52.128;9.986;2022-12-20T08:17:33;20.23;;;9.60;;
12369;SDS011;6249;52.128;9.986;2022-12-20T08:20:56;16.57;;;9.83;;
12369;SDS011;6249;52.128;9.986;2022-12-20T08:24:19;20.90;;;9.10;;
12369;SDS011;6249;52.128;9.986;2022-12-20T08:27:39;18.33;;;8.40;;
12369;SDS011;6249;52.128;9.986;2022-12-20T08:31:04;14.27;;;7.83;;
12369;SDS011;6249;52.128;9.986;2022-12-20T08:34:26;19.00;;;8.80;;
12369;SDS011;6249;52.128;9.986;2022-12-20T08:37:47;13.23;;;8.43;;
12369;SDS011;6249;52.128;9.986;2022-12-20T08:41:11;15.60;;;8.43;;
12369;SDS011;6249;52.128;9.986;2022-12-20T08:44:32;15.30;;;8.47;;
12369;SDS011;6249;52.128;9.986;2022-12-20T08:47:53;15.27;;;8.00;;
12369;SDS011;6249;52.128;9.986;2022-12-20T08:51:14;22.83;;;9.67;;
12369;SDS011;6249;52.128;9.986;2022-12-20T08:54:37;16.23;;;8.93;;
12369;SDS011;6249;52.128;9.986;2022-12-20T08:58:00;16.57;;;8.80;;
12369;SDS011;6249;52.128;9.986;2022-12-20T09:01:23;15.43;;;8.60;;
12369;SDS011;6249;52.128;9.986;2022-12-20T09:04:46;18.90;;;8.70;;
12369;SDS011;6249;52.128;9.986;2022-12-20T09:08:08;21.57;;;8.40;;
12369;SDS011;6249;52.128;9.986;2022-12-20T09:11:36;14.67;;;8.33;;
12369;SDS011;6249;52.128;9.986;2022-12-20T09:14:57;12.97;;;7.80;;
12369;SDS011;6249;52.128;9.986;2022-12-20T09:18:20;13.90;;;7.80;;
12369;SDS011;6249;52.128;9.986;2022-12-20T09:21:40;18.97;;;10.60;;
12369;SDS011;6249;52.128;9.986;2022-12-20T09:25:03;14.40;;;7.23;;
12369;SDS011;6249;52.128;9.986;2022-12-20T09:28:26;16.13;;;8.80;;
12369;SDS011;6249;52.128;9.986;2022-12-20T09:31:48;15.57;;;7.90;;
12369;SDS011;6249;52.128;9.986;2022-12-20T09:35:12;17.30;;;7.47;;
12369;SDS011;6249;52.128;9.986;2022-12-20T09:38:34;13.13;;;6.03;;
12369;SDS011;6249;52.128;9.986;2022-12-20T09:41:56;12.40;;;6.60;;
12369;SDS011;6249;52.128;9.986;2022-12-20T09:45:24;11.10;;;6.27;;
12369;SDS011;6249;52.128;9.986;2022-12-20T09:48:47;17.60;;;7.43;;
12369;SDS011;6249;52.128;9.986;2022-12-20T09:55:49;14.33;;;7.50;;
12369;SDS011;6249;52.128;9.986;2022-12-20T09:59:22;17.33;;;7.77;;
12369;SDS011;6249;52.128;9.986;2022-12-20T10:02:45;14.07;;;6.50;;
12369;SDS011;6249;52.128;9.986;2022-12-20T10:06:18;12.77;;;7.10;;
12369;SDS011;6249;52.128;9.986;2022-12-20T10:17:26;12.57;;;7.43;;
12369;SDS011;6249;52.128;9.986;2022-12-20T10:24:44;12.30;;;6.87;;
12369;SDS011;6249;52.128;9.986;2022-12-20T10:28:14;16.43;;;6.50;;
12369;SDS011;6249;52.128;9.986;2022-12-20T10:31:35;13.30;;;7.23;;
12369;SDS011;6249;52.128;9.986;2022-12-20T10:34:59;10.43;;;6.47;;
12369;SDS011;6249;52.128;9.986;2022-12-20T10:38:42;12.57;;;7.27;;
12369;SDS011;6249;52.128;9.986;2022-12-20T10:42:09;12.43;;;6.90;;
12369;SDS011;6249;52.128;9.986;2022-12-20T10:56:29;15.80;;;7.20;;
12369;SDS011;6249;52.128;9.986;2022-12-20T10:59:59;12.47;;;6.30;;
12369;SDS011;6249;52.128;9.986;2022-12-20T11:03:21;9.93;;;6.10;;
12369;SDS011;6249;52.128;9.986;2022-12-20T11:06:44;10.77;;;6.10;;
12369;SDS011;6249;52.128;9.986;2022-12-20T11:10:19;14.20;;;7.63;;
12369;SDS011;6249;52.128;9.986;2022-12-20T11:13:43;13.87;;;6.27;;
12369;SDS011;6249;52.128;9.986;2022-12-20T11:39:26;10.07;;;4.90;;
12369;SDS011;6249;52.128;9.986;2022-12-20T11:53:37;10.00;;;5.27;;
12369;SDS011;6249;52.128;9.986;2022-12-20T11:57:10;10.40;;;4.73;;
12369;SDS011;6249;52.128;9.986;2022-12-20T12:00:43;8.33;;;4.60;;
12369;SDS011;6249;52.128;9.986;2022-12-20T12:04:26;10.53;;;4.90;;
12369;SDS011;6249;52.128;9.986;2022-12-20T12:07:55;14.70;;;4.67;;
12369;SDS011;6249;52.128;9.986;2022-12-20T12:11:24;12.73;;;5.33;;
12369;SDS011;6249;52.128;9.986;2022-12-20T12:14:59;12.57;;;5.30;;
12369;SDS011;6249;52.128;9.986;2022-12-20T12:18:29;7.97;;;4.33;;
12369;SDS011;6249;52.128;9.986;2022-12-20T12:21:52;10.03;;;5.03;;
12369;SDS011;6249;52.128;9.986;2022-12-20T12:25:20;10.07;;;5.17;;
12369;SDS011;6249;52.128;9.986;2022-12-20T12:28:44;11.23;;;4.60;;
12369;SDS011;6249;52.128;9.986;2022-12-20T12:32:26;10.20;;;4.70;;
12369;SDS011;6249;52.128;9.986;2022-12-20T12:39:37;10.30;;;4.90;;
12369;SDS011;6249;52.128;9.986;2022-12-20T12:46:58;12.40;;;5.20;;
12369;SDS011;6249;52.128;9.986;2022-12-20T12:53:51;8.40;;;4.17;;
12369;SDS011;6249;52.128;9.986;2022-12-20T12:57:16;9.80;;;5.13;;
12369;SDS011;6249;52.128;9.986;2022-12-20T13:00:46;10.50;;;4.60;;
12369;SDS011;6249;52.128;9.986;2022-12-20T13:04:09;7.73;;;3.77;;
12369;SDS011;6249;52.128;9.986;2022-12-20T13:07:42;10.50;;;4.77;;
12369;SDS011;6249;52.128;9.986;2022-12-20T13:11:11;9.70;;;4.80;;
12369;SDS011;6249;52.128;9.986;2022-12-20T13:14:47;7.97;;;4.73;;
12369;SDS011;6249;52.128;9.986;2022-12-20T13:21:35;9.70;;;4.70;;
12369;SDS011;6249;52.128;9.986;2022-12-20T13:24:58;9.30;;;4.50;;
12369;SDS011;6249;52.128;9.986;2022-12-20T13:31:42;9.87;;;4.63;;
12369;SDS011;6249;52.128;9.986;2022-12-20T13:35:10;5.50;;;3.00;;
12369;SDS011;6249;52.128;9.986;2022-12-20T13:42:52;10.73;;;4.93;;
12369;SDS011;6249;52.128;9.986;2022-12-20T13:46:00;8.53;;;4.30;;
12369;SDS011;6249;52.128;9.986;2022-12-20T13:49:36;10.60;;;4.87;;
12369;SDS011;6249;52.128;9.986;2022-12-20T13:52:59;7.30;;;4.17;;
12369;SDS011;6249;52.128;9.986;2022-12-20T13:59:47;10.80;;;4.70;;
12369;SDS011;6249;52.128;9.986;2022-12-20T14:03:19;10.87;;;5.10;;
12369;SDS011;6249;52.128;9.986;2022-12-20T14:06:40;10.53;;;4.50;;
12369;SDS011;6249;52.128;9.986;2022-12-20T14:10:11;14.20;;;4.97;;
12369;SDS011;6249;52.128;9.986;2022-12-20T14:13:37;12.30;;;3.97;;
12369;SDS011;6249;52.128;9.986;2022-12-20T14:17:13;9.73;;;4.40;;
12369;SDS011;6249;52.128;9.986;2022-12-20T14:20:39;12.13;;;4.70;;
12369;SDS011;6249;52.128;9.986;2022-12-20T14:23:59;8.90;;;4.43;;
12369;SDS011;6249;52.128;9.986;2022-12-20T14:27:21;10.87;;;4.73;;
12369;SDS011;6249;52.128;9.986;2022-12-20T14:30:46;7.53;;;3.97;;
12369;SDS011;6249;52.128;9.986;2022-12-20T14:37:33;7.90;;;3.90;;
12369;SDS011;6249;52.128;9.986;2022-12-20T14:40:58;11.00;;;4.17;;
12369;SDS011;6249;52.128;9.986;2022-12-20T14:44:21;10.60;;;4.33;;
12369;SDS011;6249;52.128;9.986;2022-12-20T14:48:04;9.40;;;5.00;;
12369;SDS011;6249;52.128;9.986;2022-12-20T14:51:34;9.63;;;4.83;;
12369;SDS011;6249;52.128;9.986;2022-12-20T14:55:03;8.67;;;4.33;;
12369;SDS011;6249;52.128;9.986;2022-12-20T14:58:33;11.97;;;4.30;;
12369;SDS011;6249;52.128;9.986;2022-12-20T15:02:04;10.67;;;4.10;;
12369;SDS011;6249;52.128;9.986;2022-12-20T15:05:53;9.93;;;4.90;;
12369;SDS011;6249;52.128;9.986;2022-12-20T15:09:15;9.57;;;4.00;;
12369;SDS011;6249;52.128;9.986;2022-12-20T15:12:35;7.90;;;4.13;;
12369;SDS011;6249;52.128;9.986;2022-12-20T15:15:59;10.50;;;4.37;;
12369;SDS011;6249;52.128;9.986;2022-12-20T15:19:38;15.40;;;9.13;;
12369;SDS011;6249;52.128;9.986;2022-12-20T15:23:02;9.60;;;3.80;;
12369;SDS011;6249;52.128;9.986;2022-12-20T15:26:24;7.37;;;4.37;;
12369;SDS011;6249;52.128;9.986;2022-12-20T15:29:48;6.20;;;4.10;;
12369;SDS011;6249;52.128;9.986;2022-12-20T15:33:13;8.03;;;4.13;;
12369;SDS011;6249;52.128;9.986;2022-12-20T15:36:40;7.60;;;4.07;;
12369;SDS011;6249;52.128;9.986;2022-12-20T15:40:03;11.40;;;4.23;;
12369;SDS011;6249;52.128;9.986;2022-12-20T15:43:24;6.73;;;3.67;;
12369;SDS011;6249;52.128;9.986;2022-12-20T15:46:48;7.77;;;3.87;;
12369;SDS011;6249;52.128;9.986;2022-12-20T15:50:09;8.53;;;4.20;;
12369;SDS011;6249;52.128;9.986;2022-12-20T15:53:33;8.93;;;3.93;;
12369;SDS011;6249;52.128;9.986;2022-12-20T15:56:56;12.87;;;6.90;;
12369;SDS011;6249;52.128;9.986;2022-12-20T16:00:19;11.07;;;4.70;;
12369;SDS011;6249;52.128;9.986;2022-12-20T16:03:39;9.27;;;4.50;;
12369;SDS011;6249;52.128;9.986;2022-12-20T16:07:12;7.93;;;4.50;;
12369;SDS011;6249;52.128;9.986;2022-12-20T16:10:35;16.93;;;8.63;;
12369;SDS011;6249;52.128;9.986;2022-12-20T16:13:57;7.67;;;4.60;;
12369;SDS011;6249;52.128;9.986;2022-12-20T16:17:18;8.73;;;4.63;;
12369;SDS011;6249;52.128;9.986;2022-12-20T16:20:39;8.33;;;4.90;;
12369;SDS011;6249;52.128;9.986;2022-12-20T16:24:02;10.80;;;4.80;;
12369;SDS011;6249;52.128;9.986;2022-12-20T16:27:23;8.80;;;4.70;;
12369;SDS011;6249;52.128;9.986;2022-12-20T16:30:43;10.53;;;5.00;;
12369;SDS011;6249;52.128;9.986;2022-12-20T16:34:14;13.50;;;5.40;;
12369;SDS011;6249;52.128;9.986;2022-12-20T16:37:35;8.77;;;4.60;;
12369;SDS011;6249;52.128;9.986;2022-12-20T16:40:58;6.70;;;4.30;;
12369;SDS011;6249;52.128;9.986;2022-12-20T16:44:41;8.50;;;4.03;;
12369;SDS011;6249;52.128;9.986;2022-12-20T16:48:03;9.63;;;4.53;;
12369;SDS011;6249;52.128;9.986;2022-12-20T16:51:37;11.80;;;4.40;;
12369;SDS011;6249;52.128;9.986;2022-12-20T16:55:04;13.23;;;6.07;;
12369;SDS011;6249;52.128;9.986;2022-12-20T16:58:28;12.07;;;5.50;;
12369;SDS011;6249;52.128;9.986;2022-12-20T17:01:50;13.87;;;5.03;;
12369;SDS011;6249;52.128;9.986;2022-12-20T17:05:23;10.83;;;5.50;;
12369;SDS011;6249;52.128;9.986;2022-12-20T17:08:46;15.03;;;5.87;;
12369;SDS011;6249;52.128;9.986;2022-12-20T17:12:11;8.53;;;4.80;;
12369;SDS011;6249;52.128;9.986;2022-12-20T17:15:34;11.50;;;5.13;;
12369;SDS011;6249;52.128;9.986;2022-12-20T17:18:58;10.00;;;5.30;;
12369;SDS011;6249;52.128;9.986;2022-12-20T17:22:19;15.70;;;4.63;;
12369;SDS011;6249;52.128;9.986;2022-12-20T17:25:39;11.60;;;5.67;;
12369;SDS011;6249;52.128;9.986;2022-12-20T17:29:00;14.03;;;5.23;;
12369;SDS011;6249;52.128;9.986;2022-12-20T17:32:22;10.53;;;4.93;;
12369;SDS011;6249;52.128;9.986;2022-12-20T17:35:48;10.37;;;5.40;;
12369;SDS011;6249;52.128;9.986;2022-12-20T17:39:14;15.73;;;7.90;;
12369;SDS011;6249;52.128;9.986;2022-12-20T17:42:35;15.33;;;6.83;;
12369;SDS011;6249;52.128;9.986;2022-12-20T17:45:55;14.93;;;6.27;;
12369;SDS011;6249;52.128;9.986;2022-12-20T17:49:16;12.23;;;7.03;;
12369;SDS011;6249;52.128;9.986;2022-12-20T17:52:37;20.27;;;6.83;;
12369;SDS011;6249;52.128;9.986;2022-12-20T17:55:59;14.90;;;6.50;;
12369;SDS011;6249;52.128;9.986;2022-12-20T17:59:22;17.97;;;7.97;;
12369;SDS011;6249;52.128;9.986;2022-12-20T18:02:44;13.20;;;7.40;;
12369;SDS011;6249;52.128;9.986;2022-12-20T18:06:08;14.07;;;7.30;;
12369;SDS011;6249;52.128;9.986;2022-12-20T18:09:30;22.87;;;6.20;;
12369;SDS011;6249;52.128;9.986;2022-12-20T18:12:51;13.80;;;7.33;;
12369;SDS011;6249;52.128;9.986;2022-12-20T18:16:12;14.17;;;8.27;;
12369;SDS011;6249;52.128;9.986;2022-12-20T18:19:35;15.10;;;7.20;;
12369;SDS011;6249;52.128;9.986;2022-12-20T18:22:55;14.50;;;6.93;;
12369;SDS011;6249;52.128;9.986;2022-12-20T18:26:20;10.63;;;6.60;;
12369;SDS011;6249;52.128;9.986;2022-12-20T18:29:44;12.97;;;6.30;;
12369;SDS011;6249;52.128;9.986;2022-12-20T18:33:04;13.73;;;7.17;;
12369;SDS011;6249;52.128;9.986;2022-12-20T18:36:26;11.80;;;6.60;;
12369;SDS011;6249;52.128;9.986;2022-12-20T18:39:48;11.97;;;7.30;;
12369;SDS011;6249;52.128;9.986;2022-12-20T18:43:08;13.10;;;7.67;;
12369;SDS011;6249;52.128;9.986;2022-12-20T18:46:29;14.27;;;7.00;;
12369;SDS011;6249;52.128;9.986;2022-12-20T18:49:50;15.90;;;8.70;;
12369;SDS011;6249;52.128;9.986;2022-12-20T18:53:13;14.73;;;8.20;;
12369;SDS011;6249;52.128;9.986;2022-12-20T18:56:37;15.87;;;8.83;;
12369;SDS011;6249;52.128;9.986;2022-12-20T18:59:58;10.43;;;6.13;;
12369;SDS011;6249;52.128;9.986;2022-12-20T19:03:18;12.93;;;6.83;;
12369;SDS011;6249;52.128;9.986;2022-12-20T19:06:39;13.80;;;7.00;;
12369;SDS011;6249;52.128;9.986;2022-12-20T19:10:00;16.73;;;8.00;;
12369;SDS011;6249;52.128;9.986;2022-12-20T19:13:20;10.80;;;6.17;;
12369;SDS011;6249;52.128;9.986;2022-12-20T19:16:41;14.17;;;6.60;;
12369;SDS011;6249;52.128;9.986;2022-12-20T19:20:02;10.60;;;6.07;;
12369;SDS011;6249;52.128;9.986;2022-12-20T19:23:24;12.83;;;6.13;;
12369;SDS011;6249;52.128;9.986;2022-12-20T19:26:49;10.87;;;5.90;;
12369;SDS011;6249;52.128;9.986;2022-12-20T19:30:14;12.07;;;6.27;;
12369;SDS011;6249;52.128;9.986;2022-12-20T19:33:37;11.13;;;5.53;;
12369;SDS011;6249;52.128;9.986;2022-12-20T19:36:59;11.33;;;5.77;;
12369;SDS011;6249;52.128;9.986;2022-12-20T19:40:21;10.17;;;5.60;;
12369;SDS011;6249;52.128;9.986;2022-12-20T19:43:47;11.77;;;5.10;;
12369;SDS011;6249;52.128;9.986;2022-12-20T19:47:13;9.07;;;5.33;;
12369;SDS011;6249;52.128;9.986;2022-12-20T19:50:33;11.00;;;5.90;;
12369;SDS011;6249;52.128;9.986;2022-12-20T19:53:56;16.77;;;5.40;;
12369;SDS011;6249;52.128;9.986;2022-12-20T19:57:18;10.10;;;5.73;;
12369;SDS011;6249;52.128;9.986;2022-12-20T20:00:41;10.37;;;5.50;;
12369;SDS011;6249;52.128;9.986;2022-12-20T20:04:07;11.60;;;6.40;;
12369;SDS011;6249;52.128;9.986;2022-12-20T20:07:28;11.10;;;5.20;;
12369;SDS011;6249;52.128;9.986;2022-12-20T20:10:56;14.83;;;5.80;;
12369;SDS011;6249;52.128;9.986;2022-12-20T20:14:20;12.50;;;6.03;;
12369;SDS011;6249;52.128;9.986;2022-12-20T20:17:43;8.73;;;5.20;;
12369;SDS011;6249;52.128;9.986;2022-12-20T20:21:11;11.50;;;5.37;;
12369;SDS011;6249;52.128;9.986;2022-12-20T20:24:36;10.03;;;5.50;;
12369;SDS011;6249;52.128;9.986;2022-12-20T20:28:02;12.93;;;5.87;;
12369;SDS011;6249;52.128;9.986;2022-12-20T20:31:23;10.70;;;5.70;;
12369;SDS011;6249;52.128;9.986;2022-12-20T20:34:47;11.03;;;6.00;;
12369;SDS011;6249;52.128;9.986;2022-12-20T20:38:09;9.60;;;5.97;;
12369;SDS011;6249;52.128;9.986;2022-12-20T20:41:30;12.80;;;5.67;;
12369;SDS011;6249;52.128;9.986;2022-12-20T20:44:51;12.20;;;5.20;;
12369;SDS011;6249;52.128;9.986;2022-12-20T20:48:14;10.40;;;5.83;;
12369;SDS011;6249;52.128;9.986;2022-12-20T20:51:36;11.83;;;5.43;;
12369;SDS011;6249;52.128;9.986;2022-12-20T20:54:59;16.73;;;6.10;;
12369;SDS011;6249;52.128;9.986;2022-12-20T20:58:21;9.73;;;5.17;;
12369;SDS011;6249;52.128;9.986;2022-12-20T21:01:42;14.43;;;6.07;;
12369;SDS011;6249;52.128;9.986;2022-12-20T21:05:06;11.77;;;5.83;;
12369;SDS011;6249;52.128;9.986;2022-12-20T21:08:29;16.97;;;7.80;;
12369;SDS011;6249;52.128;9.986;2022-12-20T21:11:50;13.10;;;6.50;;
12369;SDS011;6249;52.128;9.986;2022-12-20T21:15:10;8.90;;;5.80;;
12369;SDS011;6249;52.128;9.986;2022-12-20T21:18:31;10.73;;;5.40;;
12369;SDS011;6249;52.128;9.986;2022-12-20T21:21:52;11.63;;;6.10;;
12369;SDS011;6249;52.128;9.986;2022-12-20T21:25:12;10.80;;;5.47;;
12369;SDS011;6249;52.128;9.986;2022-12-20T21:28:33;10.87;;;5.20;;
12369;SDS011;6249;52.128;9.986;2022-12-20T21:31:56;14.43;;;6.50;;
12369;SDS011;6249;52.128;9.986;2022-12-20T21:35:19;11.00;;;5.83;;
12369;SDS011;6249;52.128;9.986;2022-12-20T21:38:49;11.47;;;6.70;;
12369;SDS011;6249;52.128;9.986;2022-12-20T21:42:14;11.23;;;5.93;;
12369;SDS011;6249;52.128;9.986;2022-12-20T21:45:37;8.97;;;5.10;;
12369;SDS011;6249;52.128;9.986;2022-12-20T21:48:57;10.97;;;5.93;;
12369;SDS011;6249;52.128;9.986;2022-12-20T21:52:21;13.30;;;6.20;;
12369;SDS011;6249;52.128;9.986;2022-12-20T21:55:41;13.93;;;6.93;;
12369;SDS011;6249;52.128;9.986;2022-12-20T21:59:08;13.93;;;7.10;;
12369;SDS011;6249;52.128;9.986;2022-12-20T22:02:29;12.47;;;7.47;;
12369;SDS011;6249;52.128;9.986;2022-12-20T22:05:53;18.13;;;9.20;;
12369;SDS011;6249;52.128;9.986;2022-12-20T22:09:15;16.00;;;9.07;;